sensor_id;sensor_type;location;lat;lon;timestamp;temperature;humidity
42145;DHT22;27813;43.516;11.890;2023-05-07T04:35:20;8.60;78.70
42145;DHT22;27813;43.516;11.890;2023-05-07T04:39:24;8.80;78.80
42145;DHT22;27813;43.516;11.890;2023-05-07T04:43:29;9.70;78.30
42145;DHT22;27813;43.516;11.890;2023-05-07T04:47:35;11.30;74.10
42145;DHT22;27813;43.516;11.890;2023-05-07T04:51:40;12.70;70.40
42145;DHT22;27813;43.516;11.890;2023-05-07T04:55:55;13.90;67.80
42145;DHT22;27813;43.516;11.890;2023-05-07T05:00:09;14.80;65.60
42145;DHT22;27813;43.516;11.890;2023-05-07T05:04:16;15.70;63.90
42145;DHT22;27813;43.516;11.890;2023-05-07T05:08:21;16.50;62.50
42145;DHT22;27813;43.516;11.890;2023-05-07T05:12:25;17.20;61.30
42145;DHT22;27813;43.516;11.890;2023-05-07T05:16:29;17.90;60.40
42145;DHT22;27813;43.516;11.890;2023-05-07T05:20:34;18.60;59.20
42145;DHT22;27813;43.516;11.890;2023-05-07T05:24:38;19.20;58.20
42145;DHT22;27813;43.516;11.890;2023-05-07T05:28:43;19.50;57.70
42145;DHT22;27813;43.516;11.890;2023-05-07T05:32:50;20.00;57.20
42145;DHT22;27813;43.516;11.890;2023-05-07T05:36:55;20.50;56.30
42145;DHT22;27813;43.516;11.890;2023-05-07T05:41:00;21.00;55.50
42145;DHT22;27813;43.516;11.890;2023-05-07T05:45:06;21.20;55.10
42145;DHT22;27813;43.516;11.890;2023-05-07T05:49:11;21.50;54.60
42145;DHT22;27813;43.516;11.890;2023-05-07T05:53:16;21.90;54.50
42145;DHT22;27813;43.516;11.890;2023-05-07T05:57:20;22.50;53.50
42145;DHT22;27813;43.516;11.890;2023-05-07T06:01:26;23.00;52.60
42145;DHT22;27813;43.516;11.890;2023-05-07T06:05:33;23.50;51.80
42145;DHT22;27813;43.516;11.890;2023-05-07T06:09:37;23.70;51.50
42145;DHT22;27813;43.516;11.890;2023-05-07T06:13:41;24.20;50.90
42145;DHT22;27813;43.516;11.890;2023-05-07T06:17:47;24.90;49.80
42145;DHT22;27813;43.516;11.890;2023-05-07T06:21:53;25.50;48.80
42145;DHT22;27813;43.516;11.890;2023-05-07T06:25:58;26.00;48.10
42145;DHT22;27813;43.516;11.890;2023-05-07T06:30:08;26.50;47.30
42145;DHT22;27813;43.516;11.890;2023-05-07T06:34:13;26.80;47.10
42145;DHT22;27813;43.516;11.890;2023-05-07T06:38:18;27.20;46.60
42145;DHT22;27813;43.516;11.890;2023-05-07T06:42:24;27.50;46.00
42145;DHT22;27813;43.516;11.890;2023-05-07T06:46:34;27.70;45.30
42145;DHT22;27813;43.516;11.890;2023-05-07T06:50:41;27.60;45.00
42145;DHT22;27813;43.516;11.890;2023-05-07T06:54:46;26.70;46.10
42145;DHT22;27813;43.516;11.890;2023-05-07T06:58:53;25.30;48.90
42145;DHT22;27813;43.516;11.890;2023-05-07T07:02:57;24.20;51.20
42145;DHT22;27813;43.516;11.890;2023-05-07T07:07:05;23.50;52.80
42145;DHT22;27813;43.516;11.890;2023-05-07T07:11:11;22.90;53.80
42145;DHT22;27813;43.516;11.890;2023-05-07T07:15:15;22.50;54.60
42145;DHT22;27813;43.516;11.890;2023-05-07T07:19:21;22.30;54.90
42145;DHT22;27813;43.516;11.890;2023-05-07T07:23:28;22.20;55.40
42145;DHT22;27813;43.516;11.890;2023-05-07T07:27:33;22.10;55.50
42145;DHT22;27813;43.516;11.890;2023-05-07T07:31:38;22.10;55.60
42145;DHT22;27813;43.516;11.890;2023-05-07T07:35:43;22.10;55.50
42145;DHT22;27813;43.516;11.890;2023-05-07T07:39:47;22.10;55.60
42145;DHT22;27813;43.516;11.890;2023-05-07T07:43:52;22.10;55.60
42145;DHT22;27813;43.516;11.890;2023-05-07T07:47:57;22.10;55.50
42145;DHT22;27813;43.516;11.890;2023-05-07T07:52:02;22.00;55.60
42145;DHT22;27813;43.516;11.890;2023-05-07T07:56:09;22.00;55.60
42145;DHT22;27813;43.516;11.890;2023-05-07T08:00:13;21.90;55.60
42145;DHT22;27813;43.516;11.890;2023-05-07T08:04:26;21.90;55.70
42145;DHT22;27813;43.516;11.890;2023-05-07T08:08:32;21.80;55.80
42145;DHT22;27813;43.516;11.890;2023-05-07T08:12:37;21.80;55.80
42145;DHT22;27813;43.516;11.890;2023-05-07T08:16:42;21.80;56.00
42145;DHT22;27813;43.516;11.890;2023-05-07T08:20:46;21.80;56.10
42145;DHT22;27813;43.516;11.890;2023-05-07T08:24:56;21.80;56.20
42145;DHT22;27813;43.516;11.890;2023-05-07T08:29:00;22.00;56.30
42145;DHT22;27813;43.516;11.890;2023-05-07T08:33:05;22.00;56.30
42145;DHT22;27813;43.516;11.890;2023-05-07T08:37:09;22.00;56.20
42145;DHT22;27813;43.516;11.890;2023-05-07T08:41:14;22.10;56.20
42145;DHT22;27813;43.516;11.890;2023-05-07T08:45:21;22.20;56.10
42145;DHT22;27813;43.516;11.890;2023-05-07T08:49:28;22.40;55.90
42145;DHT22;27813;43.516;11.890;2023-05-07T08:53:33;22.50;55.60
42145;DHT22;27813;43.516;11.890;2023-05-07T08:57:37;22.70;55.40
42145;DHT22;27813;43.516;11.890;2023-05-07T09:01:44;23.00;55.00
42145;DHT22;27813;43.516;11.890;2023-05-07T09:05:50;23.20;54.90
42145;DHT22;27813;43.516;11.890;2023-05-07T09:09:56;23.30;54.70
42145;DHT22;27813;43.516;11.890;2023-05-07T09:14:01;23.50;54.40
42145;DHT22;27813;43.516;11.890;2023-05-07T09:18:14;23.60;54.20
42145;DHT22;27813;43.516;11.890;2023-05-07T09:22:21;23.60;54.00
42145;DHT22;27813;43.516;11.890;2023-05-07T09:26:35;23.60;54.20
42145;DHT22;27813;43.516;11.890;2023-05-07T09:30:41;23.80;54.60
42145;DHT22;27813;43.516;11.890;2023-05-07T09:34:48;24.20;54.60
42145;DHT22;27813;43.516;11.890;2023-05-07T09:38:55;25.00;54.10
42145;DHT22;27813;43.516;11.890;2023-05-07T09:43:13;25.90;52.90
42145;DHT22;27813;43.516;11.890;2023-05-07T09:47:24;27.30;49.80
42145;DHT22;27813;43.516;11.890;2023-05-07T09:51:45;28.80;46.70
42145;DHT22;27813;43.516;11.890;2023-05-07T09:55:53;30.20;44.10
42145;DHT22;27813;43.516;11.890;2023-05-07T09:59:58;31.30;42.00
42145;DHT22;27813;43.516;11.890;2023-05-07T10:04:08;32.00;40.50
42145;DHT22;27813;43.516;11.890;2023-05-07T10:08:13;32.50;39.10
42145;DHT22;27813;43.516;11.890;2023-05-07T10:12:23;32.90;38.40
42145;DHT22;27813;43.516;11.890;2023-05-07T10:16:33;33.40;37.70
42145;DHT22;27813;43.516;11.890;2023-05-07T10:20:46;33.80;36.70
42145;DHT22;27813;43.516;11.890;2023-05-07T10:24:53;34.00;36.20
42145;DHT22;27813;43.516;11.890;2023-05-07T10:29:15;34.00;35.90
42145;DHT22;27813;43.516;11.890;2023-05-07T10:33:27;34.10;34.90
42145;DHT22;27813;43.516;11.890;2023-05-07T10:37:34;34.30;34.50
42145;DHT22;27813;43.516;11.890;2023-05-07T10:41:39;34.40;34.10
42145;DHT22;27813;43.516;11.890;2023-05-07T10:46:14;34.60;33.60
42145;DHT22;27813;43.516;11.890;2023-05-07T10:50:25;34.60;33.10
42145;DHT22;27813;43.516;11.890;2023-05-07T10:54:36;34.90;33.20
42145;DHT22;27813;43.516;11.890;2023-05-07T10:58:45;35.10;32.90
42145;DHT22;27813;43.516;11.890;2023-05-07T11:07:24;35.10;32.90
42145;DHT22;27813;43.516;11.890;2023-05-07T11:11:49;35.20;32.50
42145;DHT22;27813;43.516;11.890;2023-05-07T11:16:03;35.30;32.50
42145;DHT22;27813;43.516;11.890;2023-05-07T11:20:15;35.30;32.70
42145;DHT22;27813;43.516;11.890;2023-05-07T11:24:28;35.10;32.70
42145;DHT22;27813;43.516;11.890;2023-05-07T11:28:41;35.00;32.90
42145;DHT22;27813;43.516;11.890;2023-05-07T11:32:48;34.90;33.00
42145;DHT22;27813;43.516;11.890;2023-05-07T11:36:54;34.90;33.20
42145;DHT22;27813;43.516;11.890;2023-05-07T11:41:12;34.80;33.40
42145;DHT22;27813;43.516;11.890;2023-05-07T11:45:23;34.80;33.50
42145;DHT22;27813;43.516;11.890;2023-05-07T11:49:30;34.90;33.30
42145;DHT22;27813;43.516;11.890;2023-05-07T11:53:42;34.90;33.60
42145;DHT22;27813;43.516;11.890;2023-05-07T11:57:46;34.80;33.50
42145;DHT22;27813;43.516;11.890;2023-05-07T12:01:51;34.50;33.70
42145;DHT22;27813;43.516;11.890;2023-05-07T12:05:56;34.40;33.90
42145;DHT22;27813;43.516;11.890;2023-05-07T12:10:05;34.30;33.90
42145;DHT22;27813;43.516;11.890;2023-05-07T12:14:10;34.30;33.60
42145;DHT22;27813;43.516;11.890;2023-05-07T12:18:15;34.30;33.50
42145;DHT22;27813;43.516;11.890;2023-05-07T12:22:19;34.00;33.60
42145;DHT22;27813;43.516;11.890;2023-05-07T12:26:25;33.50;33.80
42145;DHT22;27813;43.516;11.890;2023-05-07T12:30:29;32.90;34.40
42145;DHT22;27813;43.516;11.890;2023-05-07T12:34:34;32.30;35.00
42145;DHT22;27813;43.516;11.890;2023-05-07T12:38:39;31.80;35.50
42145;DHT22;27813;43.516;11.890;2023-05-07T12:42:44;31.30;35.80
42145;DHT22;27813;43.516;11.890;2023-05-07T12:46:49;30.80;36.20
42145;DHT22;27813;43.516;11.890;2023-05-07T12:50:55;30.30;36.70
42145;DHT22;27813;43.516;11.890;2023-05-07T12:55:09;30.00;37.20
42145;DHT22;27813;43.516;11.890;2023-05-07T12:59:16;29.70;37.40
42145;DHT22;27813;43.516;11.890;2023-05-07T13:03:23;29.50;37.60
42145;DHT22;27813;43.516;11.890;2023-05-07T13:07:28;29.30;37.90
42145;DHT22;27813;43.516;11.890;2023-05-07T13:11:36;29.10;38.10
42145;DHT22;27813;43.516;11.890;2023-05-07T13:15:41;28.80;38.40
42145;DHT22;27813;43.516;11.890;2023-05-07T13:19:45;28.60;38.70
42145;DHT22;27813;43.516;11.890;2023-05-07T13:23:50;28.50;38.80
42145;DHT22;27813;43.516;11.890;2023-05-07T13:27:57;28.50;38.90
42145;DHT22;27813;43.516;11.890;2023-05-07T13:32:13;28.40;39.00
42145;DHT22;27813;43.516;11.890;2023-05-07T13:36:18;28.30;39.10
42145;DHT22;27813;43.516;11.890;2023-05-07T13:40:23;28.10;39.10
42145;DHT22;27813;43.516;11.890;2023-05-07T13:44:28;28.00;39.10
42145;DHT22;27813;43.516;11.890;2023-05-07T13:48:32;28.00;39.20
42145;DHT22;27813;43.516;11.890;2023-05-07T13:52:37;27.90;39.40
42145;DHT22;27813;43.516;11.890;2023-05-07T13:56:44;27.90;39.50
42145;DHT22;27813;43.516;11.890;2023-05-07T14:00:49;28.00;39.50
42145;DHT22;27813;43.516;11.890;2023-05-07T14:04:54;27.80;39.60
42145;DHT22;27813;43.516;11.890;2023-05-07T14:08:59;27.70;39.90
42145;DHT22;27813;43.516;11.890;2023-05-07T14:13:04;27.70;40.10
42145;DHT22;27813;43.516;11.890;2023-05-07T14:17:08;27.70;40.10
42145;DHT22;27813;43.516;11.890;2023-05-07T14:21:13;27.60;40.30
42145;DHT22;27813;43.516;11.890;2023-05-07T14:25:18;27.60;40.40
42145;DHT22;27813;43.516;11.890;2023-05-07T14:29:27;27.60;40.50
42145;DHT22;27813;43.516;11.890;2023-05-07T14:33:32;27.50;40.60
42145;DHT22;27813;43.516;11.890;2023-05-07T14:37:36;27.50;40.60
42145;DHT22;27813;43.516;11.890;2023-05-07T14:41:42;27.50;40.50
42145;DHT22;27813;43.516;11.890;2023-05-07T14:45:47;27.50;40.60
42145;DHT22;27813;43.516;11.890;2023-05-07T14:49:51;27.50;40.70
42145;DHT22;27813;43.516;11.890;2023-05-07T14:53:57;27.50;40.60
42145;DHT22;27813;43.516;11.890;2023-05-07T14:58:02;27.50;40.70
42145;DHT22;27813;43.516;11.890;2023-05-07T15:02:12;27.40;40.80
42145;DHT22;27813;43.516;11.890;2023-05-07T15:06:20;27.30;41.00
42145;DHT22;27813;43.516;11.890;2023-05-07T15:10:25;27.20;41.00
42145;DHT22;27813;43.516;11.890;2023-05-07T15:14:30;27.20;41.10
42145;DHT22;27813;43.516;11.890;2023-05-07T15:18:34;27.20;41.10
42145;DHT22;27813;43.516;11.890;2023-05-07T15:22:39;27.30;41.10
42145;DHT22;27813;43.516;11.890;2023-05-07T15:26:45;27.20;41.00
42145;DHT22;27813;43.516;11.890;2023-05-07T15:30:50;27.10;41.10
42145;DHT22;27813;43.516;11.890;2023-05-07T15:34:57;27.00;41.50
42145;DHT22;27813;43.516;11.890;2023-05-07T15:39:02;26.90;41.90
42145;DHT22;27813;43.516;11.890;2023-05-07T15:43:08;27.00;41.80
42145;DHT22;27813;43.516;11.890;2023-05-07T15:47:13;27.10;41.70
42145;DHT22;27813;43.516;11.890;2023-05-07T15:51:18;27.10;41.90
42145;DHT22;27813;43.516;11.890;2023-05-07T15:55:24;27.00;42.10
42145;DHT22;27813;43.516;11.890;2023-05-07T15:59:29;27.00;42.30
42145;DHT22;27813;43.516;11.890;2023-05-07T16:03:33;26.90;42.50
42145;DHT22;27813;43.516;11.890;2023-05-07T16:07:38;26.90;42.60
42145;DHT22;27813;43.516;11.890;2023-05-07T16:11:44;27.00;42.60
42145;DHT22;27813;43.516;11.890;2023-05-07T16:15:49;27.10;42.50
42145;DHT22;27813;43.516;11.890;2023-05-07T16:19:53;27.10;42.40
42145;DHT22;27813;43.516;11.890;2023-05-07T16:23:58;27.00;42.40
42145;DHT22;27813;43.516;11.890;2023-05-07T16:28:03;26.90;42.60
42145;DHT22;27813;43.516;11.890;2023-05-07T16:32:08;26.70;43.00
42145;DHT22;27813;43.516;11.890;2023-05-07T16:36:13;26.40;43.40
42145;DHT22;27813;43.516;11.890;2023-05-07T16:40:18;26.10;43.80
42145;DHT22;27813;43.516;11.890;2023-05-07T16:44:22;25.90;44.10
42145;DHT22;27813;43.516;11.890;2023-05-07T16:48:28;25.60;44.60
42145;DHT22;27813;43.516;11.890;2023-05-07T16:52:32;25.50;44.90
42145;DHT22;27813;43.516;11.890;2023-05-07T16:56:37;25.20;45.10
42145;DHT22;27813;43.516;11.890;2023-05-07T17:00:42;25.00;45.50
42145;DHT22;27813;43.516;11.890;2023-05-07T17:04:53;24.80;45.80
42145;DHT22;27813;43.516;11.890;2023-05-07T17:08:58;24.60;46.10
42145;DHT22;27813;43.516;11.890;2023-05-07T17:13:03;24.50;46.40
42145;DHT22;27813;43.516;11.890;2023-05-07T17:17:08;24.30;46.80
42145;DHT22;27813;43.516;11.890;2023-05-07T17:21:13;24.10;47.20
42145;DHT22;27813;43.516;11.890;2023-05-07T17:25:18;23.90;47.50
42145;DHT22;27813;43.516;11.890;2023-05-07T17:29:23;23.70;47.90
42145;DHT22;27813;43.516;11.890;2023-05-07T17:33:28;23.60;48.20
42145;DHT22;27813;43.516;11.890;2023-05-07T17:37:34;23.40;48.70
42145;DHT22;27813;43.516;11.890;2023-05-07T17:41:39;23.20;49.00
42145;DHT22;27813;43.516;11.890;2023-05-07T17:45:43;23.00;49.30
42145;DHT22;27813;43.516;11.890;2023-05-07T17:49:48;22.90;49.50
42145;DHT22;27813;43.516;11.890;2023-05-07T17:53:55;22.70;49.80
42145;DHT22;27813;43.516;11.890;2023-05-07T17:57:59;22.50;50.10
42145;DHT22;27813;43.516;11.890;2023-05-07T18:02:06;22.40;50.50
42145;DHT22;27813;43.516;11.890;2023-05-07T18:06:10;22.30;50.90
42145;DHT22;27813;43.516;11.890;2023-05-07T18:10:21;22.20;51.10
42145;DHT22;27813;43.516;11.890;2023-05-07T18:14:26;22.00;51.30
42145;DHT22;27813;43.516;11.890;2023-05-07T18:18:30;22.00;51.70
42145;DHT22;27813;43.516;11.890;2023-05-07T18:22:35;21.70;51.90
42145;DHT22;27813;43.516;11.890;2023-05-07T18:26:39;21.60;52.10
42145;DHT22;27813;43.516;11.890;2023-05-07T18:30:44;21.50;52.40
42145;DHT22;27813;43.516;11.890;2023-05-07T18:34:48;21.30;52.70
42145;DHT22;27813;43.516;11.890;2023-05-07T18:38:53;21.20;53.00
42145;DHT22;27813;43.516;11.890;2023-05-07T18:42:59;21.20;53.10
42145;DHT22;27813;43.516;11.890;2023-05-07T18:47:09;21.10;53.20
42145;DHT22;27813;43.516;11.890;2023-05-07T18:51:14;21.00;53.50
42145;DHT22;27813;43.516;11.890;2023-05-07T18:55:18;20.90;53.70
42145;DHT22;27813;43.516;11.890;2023-05-07T18:59:29;20.80;54.00
42145;DHT22;27813;43.516;11.890;2023-05-07T19:03:34;20.70;54.20
42145;DHT22;27813;43.516;11.890;2023-05-07T19:07:38;20.70;54.40
42145;DHT22;27813;43.516;11.890;2023-05-07T19:11:43;20.60;54.50
42145;DHT22;27813;43.516;11.890;2023-05-07T19:15:49;20.50;54.80
42145;DHT22;27813;43.516;11.890;2023-05-07T19:19:53;20.40;54.90
42145;DHT22;27813;43.516;11.890;2023-05-07T19:23:59;20.30;55.20
42145;DHT22;27813;43.516;11.890;2023-05-07T19:28:04;20.20;55.50
42145;DHT22;27813;43.516;11.890;2023-05-07T19:32:09;20.00;55.70
42145;DHT22;27813;43.516;11.890;2023-05-07T19:36:14;20.00;56.00
42145;DHT22;27813;43.516;11.890;2023-05-07T19:40:20;19.80;56.30
42145;DHT22;27813;43.516;11.890;2023-05-07T19:44:25;19.70;56.50
42145;DHT22;27813;43.516;11.890;2023-05-07T19:48:29;19.50;56.90
42145;DHT22;27813;43.516;11.890;2023-05-07T19:52:34;19.40;57.30
42145;DHT22;27813;43.516;11.890;2023-05-07T19:56:39;19.30;57.60
42145;DHT22;27813;43.516;11.890;2023-05-07T20:00:45;19.10;57.80
42145;DHT22;27813;43.516;11.890;2023-05-07T20:04:50;19.00;58.20
42145;DHT22;27813;43.516;11.890;2023-05-07T20:08:56;18.80;58.60
42145;DHT22;27813;43.516;11.890;2023-05-07T20:13:00;18.70;58.90
42145;DHT22;27813;43.516;11.890;2023-05-07T20:17:05;18.60;59.20
42145;DHT22;27813;43.516;11.890;2023-05-07T20:21:10;18.50;59.50
42145;DHT22;27813;43.516;11.890;2023-05-07T20:25:18;18.40;59.80
42145;DHT22;27813;43.516;11.890;2023-05-07T20:29:22;18.30;60.10
42145;DHT22;27813;43.516;11.890;2023-05-07T20:33:27;18.10;60.30
42145;DHT22;27813;43.516;11.890;2023-05-07T20:37:33;17.90;60.70
42145;DHT22;27813;43.516;11.890;2023-05-07T20:41:42;17.70;61.20
42145;DHT22;27813;43.516;11.890;2023-05-07T20:45:48;17.50;61.60
42145;DHT22;27813;43.516;11.890;2023-05-07T20:50:01;17.30;62.00
42145;DHT22;27813;43.516;11.890;2023-05-07T20:54:08;17.20;62.40
42145;DHT22;27813;43.516;11.890;2023-05-07T20:58:54;17.00;62.60
42145;DHT22;27813;43.516;11.890;2023-05-07T21:03:48;16.80;63.10
42145;DHT22;27813;43.516;11.890;2023-05-07T21:07:57;16.60;63.30
42145;DHT22;27813;43.516;11.890;2023-05-07T21:12:03;16.50;63.80
42145;DHT22;27813;43.516;11.890;2023-05-07T21:16:08;16.30;64.10
42145;DHT22;27813;43.516;11.890;2023-05-07T21:20:13;16.20;64.40
42145;DHT22;27813;43.516;11.890;2023-05-07T21:24:18;16.10;64.80
42145;DHT22;27813;43.516;11.890;2023-05-07T21:28:23;16.00;65.20
42145;DHT22;27813;43.516;11.890;2023-05-07T21:32:27;16.00;65.40
42145;DHT22;27813;43.516;11.890;2023-05-07T21:36:33;15.90;65.60
42145;DHT22;27813;43.516;11.890;2023-05-07T21:40:37;15.80;65.90
42145;DHT22;27813;43.516;11.890;2023-05-07T21:48:49;15.80;66.40
42145;DHT22;27813;43.516;11.890;2023-05-07T21:52:54;15.80;66.50
42145;DHT22;27813;43.516;11.890;2023-05-07T21:56:59;15.80;66.70
42145;DHT22;27813;43.516;11.890;2023-05-07T22:01:04;15.80;66.90
42145;DHT22;27813;43.516;11.890;2023-05-07T22:05:08;15.70;66.90
42145;DHT22;27813;43.516;11.890;2023-05-07T22:09:13;15.70;67.00
42145;DHT22;27813;43.516;11.890;2023-05-07T22:13:18;15.70;67.20
42145;DHT22;27813;43.516;11.890;2023-05-07T22:17:22;15.70;67.20
42145;DHT22;27813;43.516;11.890;2023-05-07T22:21:28;15.70;67.30
42145;DHT22;27813;43.516;11.890;2023-05-07T22:25:33;15.70;67.60
42145;DHT22;27813;43.516;11.890;2023-05-07T22:29:38;15.70;67.60
42145;DHT22;27813;43.516;11.890;2023-05-07T22:33:42;15.70;67.60
42145;DHT22;27813;43.516;11.890;2023-05-07T22:37:46;15.70;67.70
42145;DHT22;27813;43.516;11.890;2023-05-07T22:41:51;15.70;68.00
42145;DHT22;27813;43.516;11.890;2023-05-07T22:46:01;15.70;68.10
42145;DHT22;27813;43.516;11.890;2023-05-07T22:50:07;15.70;68.30
42145;DHT22;27813;43.516;11.890;2023-05-07T22:54:12;15.60;68.40
42145;DHT22;27813;43.516;11.890;2023-05-07T22:58:24;15.60;68.60
42145;DHT22;27813;43.516;11.890;2023-05-07T23:03:56;15.50;68.80
42145;DHT22;27813;43.516;11.890;2023-05-07T23:08:00;15.50;68.70
42145;DHT22;27813;43.516;11.890;2023-05-07T23:12:07;15.50;68.80
42145;DHT22;27813;43.516;11.890;2023-05-07T23:16:12;15.50;69.00
42145;DHT22;27813;43.516;11.890;2023-05-07T23:20:17;15.40;69.30
42145;DHT22;27813;43.516;11.890;2023-05-07T23:24:21;15.30;69.50
42145;DHT22;27813;43.516;11.890;2023-05-07T23:28:25;15.30;69.70
